sensor_id;sensor_type;location;lat;lon;timestamp;temperature;humidity
29725;DHT22;16636;48.394;15.468;2023-03-05T00:01:44;4.00;38.50
29725;DHT22;16636;48.394;15.468;2023-03-05T00:04:12;4.00;36.70
29725;DHT22;16636;48.394;15.468;2023-03-05T00:06:39;4.00;36.50
29725;DHT22;16636;48.394;15.468;2023-03-05T00:09:05;4.00;36.40
29725;DHT22;16636;48.394;15.468;2023-03-05T00:11:32;4.00;37.60
29725;DHT22;16636;48.394;15.468;2023-03-05T00:13:59;4.00;36.70
29725;DHT22;16636;48.394;15.468;2023-03-05T00:16:26;4.00;38.10
29725;DHT22;16636;48.394;15.468;2023-03-05T00:18:54;4.10;39.30
29725;DHT22;16636;48.394;15.468;2023-03-05T00:21:33;4.10;40.70
29725;DHT22;16636;48.394;15.468;2023-03-05T00:24:01;4.10;41.90
29725;DHT22;16636;48.394;15.468;2023-03-05T00:26:28;4.10;41.70
29725;DHT22;16636;48.394;15.468;2023-03-05T00:28:56;4.10;41.80
29725;DHT22;16636;48.394;15.468;2023-03-05T00:31:25;4.10;42.50
29725;DHT22;16636;48.394;15.468;2023-03-05T00:33:55;4.10;42.50
29725;DHT22;16636;48.394;15.468;2023-03-05T00:36:22;4.20;44.20
29725;DHT22;16636;48.394;15.468;2023-03-05T00:38:49;4.10;45.20
29725;DHT22;16636;48.394;15.468;2023-03-05T00:41:15;4.10;46.80
29725;DHT22;16636;48.394;15.468;2023-03-05T00:43:42;4.10;47.70
29725;DHT22;16636;48.394;15.468;2023-03-05T00:46:08;4.00;47.70
29725;DHT22;16636;48.394;15.468;2023-03-05T00:48:34;4.00;47.60
29725;DHT22;16636;48.394;15.468;2023-03-05T00:51:00;4.00;47.50
29725;DHT22;16636;48.394;15.468;2023-03-05T00:53:26;4.00;40.10
29725;DHT22;16636;48.394;15.468;2023-03-05T00:55:52;4.00;39.90
29725;DHT22;16636;48.394;15.468;2023-03-05T00:58:18;4.00;43.10
29725;DHT22;16636;48.394;15.468;2023-03-05T01:00:44;4.00;45.90
29725;DHT22;16636;48.394;15.468;2023-03-05T01:03:10;4.00;48.00
29725;DHT22;16636;48.394;15.468;2023-03-05T01:05:36;4.00;49.50
29725;DHT22;16636;48.394;15.468;2023-03-05T01:08:02;4.00;51.20
29725;DHT22;16636;48.394;15.468;2023-03-05T01:10:28;4.00;40.30
29725;DHT22;16636;48.394;15.468;2023-03-05T01:12:55;4.00;40.70
29725;DHT22;16636;48.394;15.468;2023-03-05T01:15:23;4.00;41.10
29725;DHT22;16636;48.394;15.468;2023-03-05T01:17:49;4.00;41.10
29725;DHT22;16636;48.394;15.468;2023-03-05T01:20:17;4.00;40.80
29725;DHT22;16636;48.394;15.468;2023-03-05T01:22:43;4.00;41.70
29725;DHT22;16636;48.394;15.468;2023-03-05T01:25:11;3.90;42.90
29725;DHT22;16636;48.394;15.468;2023-03-05T01:27:38;4.00;42.80
29725;DHT22;16636;48.394;15.468;2023-03-05T01:30:09;4.00;40.90
29725;DHT22;16636;48.394;15.468;2023-03-05T01:32:36;3.90;40.40
29725;DHT22;16636;48.394;15.468;2023-03-05T01:35:03;3.90;40.90
29725;DHT22;16636;48.394;15.468;2023-03-05T01:37:30;4.00;41.60
29725;DHT22;16636;48.394;15.468;2023-03-05T01:39:56;4.00;42.20
29725;DHT22;16636;48.394;15.468;2023-03-05T01:42:22;4.00;43.10
29725;DHT22;16636;48.394;15.468;2023-03-05T01:45:17;4.00;44.90
29725;DHT22;16636;48.394;15.468;2023-03-05T01:47:44;4.00;46.10
29725;DHT22;16636;48.394;15.468;2023-03-05T01:50:15;4.00;44.40
29725;DHT22;16636;48.394;15.468;2023-03-05T01:52:45;4.00;53.10
29725;DHT22;16636;48.394;15.468;2023-03-05T01:55:15;3.90;42.80
29725;DHT22;16636;48.394;15.468;2023-03-05T01:57:49;3.90;43.10
29725;DHT22;16636;48.394;15.468;2023-03-05T02:00:20;3.90;41.90
29725;DHT22;16636;48.394;15.468;2023-03-05T02:02:49;3.90;42.00
29725;DHT22;16636;48.394;15.468;2023-03-05T02:05:20;3.90;42.30
29725;DHT22;16636;48.394;15.468;2023-03-05T02:08:00;3.90;42.20
29725;DHT22;16636;48.394;15.468;2023-03-05T02:10:31;3.90;42.60
29725;DHT22;16636;48.394;15.468;2023-03-05T02:13:01;3.90;41.80
29725;DHT22;16636;48.394;15.468;2023-03-05T02:15:28;3.90;41.20
29725;DHT22;16636;48.394;15.468;2023-03-05T02:17:55;3.90;41.30
29725;DHT22;16636;48.394;15.468;2023-03-05T02:20:24;3.90;41.70
29725;DHT22;16636;48.394;15.468;2023-03-05T02:22:51;3.90;40.50
29725;DHT22;16636;48.394;15.468;2023-03-05T02:25:20;3.90;41.00
29725;DHT22;16636;48.394;15.468;2023-03-05T02:28:22;4.00;41.40
29725;DHT22;16636;48.394;15.468;2023-03-05T02:30:49;4.00;40.10
29725;DHT22;16636;48.394;15.468;2023-03-05T02:33:17;4.00;40.60
29725;DHT22;16636;48.394;15.468;2023-03-05T02:35:44;3.90;40.70
29725;DHT22;16636;48.394;15.468;2023-03-05T02:38:16;4.00;40.50
29725;DHT22;16636;48.394;15.468;2023-03-05T02:40:44;4.00;41.00
29725;DHT22;16636;48.394;15.468;2023-03-05T02:43:10;4.00;40.50
29725;DHT22;16636;48.394;15.468;2023-03-05T02:45:37;4.00;40.70
29725;DHT22;16636;48.394;15.468;2023-03-05T02:48:04;4.00;41.30
29725;DHT22;16636;48.394;15.468;2023-03-05T02:50:30;4.00;40.60
29725;DHT22;16636;48.394;15.468;2023-03-05T02:52:57;3.90;41.90
29725;DHT22;16636;48.394;15.468;2023-03-05T02:55:23;3.90;40.90
29725;DHT22;16636;48.394;15.468;2023-03-05T02:57:49;3.90;40.60
29725;DHT22;16636;48.394;15.468;2023-03-05T03:00:16;4.00;40.40
29725;DHT22;16636;48.394;15.468;2023-03-05T03:02:42;4.00;40.40
29725;DHT22;16636;48.394;15.468;2023-03-05T03:05:09;3.90;41.00
29725;DHT22;16636;48.394;15.468;2023-03-05T03:07:35;4.00;41.20
29725;DHT22;16636;48.394;15.468;2023-03-05T03:10:02;3.90;40.00
29725;DHT22;16636;48.394;15.468;2023-03-05T03:12:28;3.90;41.50
29725;DHT22;16636;48.394;15.468;2023-03-05T03:14:54;3.90;41.90
29725;DHT22;16636;48.394;15.468;2023-03-05T03:17:20;3.90;41.80
29725;DHT22;16636;48.394;15.468;2023-03-05T03:19:47;3.90;41.90
29725;DHT22;16636;48.394;15.468;2023-03-05T03:22:15;3.90;42.40
29725;DHT22;16636;48.394;15.468;2023-03-05T03:24:42;3.90;41.50
29725;DHT22;16636;48.394;15.468;2023-03-05T03:27:09;3.90;41.40
29725;DHT22;16636;48.394;15.468;2023-03-05T03:29:36;3.90;41.00
29725;DHT22;16636;48.394;15.468;2023-03-05T03:32:02;3.90;41.00
29725;DHT22;16636;48.394;15.468;2023-03-05T03:34:29;3.90;41.20
29725;DHT22;16636;48.394;15.468;2023-03-05T03:36:55;3.90;40.80
29725;DHT22;16636;48.394;15.468;2023-03-05T03:39:21;3.90;40.80
29725;DHT22;16636;48.394;15.468;2023-03-05T03:41:50;3.90;41.30
29725;DHT22;16636;48.394;15.468;2023-03-05T03:44:18;3.90;40.90
29725;DHT22;16636;48.394;15.468;2023-03-05T03:46:46;3.90;41.40
29725;DHT22;16636;48.394;15.468;2023-03-05T03:49:24;4.00;41.20
29725;DHT22;16636;48.394;15.468;2023-03-05T03:51:51;4.00;41.90
29725;DHT22;16636;48.394;15.468;2023-03-05T03:54:20;3.90;41.70
29725;DHT22;16636;48.394;15.468;2023-03-05T03:56:46;4.00;40.80
29725;DHT22;16636;48.394;15.468;2023-03-05T03:59:13;4.00;40.90
29725;DHT22;16636;48.394;15.468;2023-03-05T04:01:39;4.00;41.40
29725;DHT22;16636;48.394;15.468;2023-03-05T04:04:06;3.90;41.50
29725;DHT22;16636;48.394;15.468;2023-03-05T04:06:33;4.00;41.50
29725;DHT22;16636;48.394;15.468;2023-03-05T04:08:59;4.00;41.50
29725;DHT22;16636;48.394;15.468;2023-03-05T04:11:25;4.00;40.50
29725;DHT22;16636;48.394;15.468;2023-03-05T04:13:51;4.00;41.00
29725;DHT22;16636;48.394;15.468;2023-03-05T04:16:18;4.00;41.50
29725;DHT22;16636;48.394;15.468;2023-03-05T04:18:44;4.00;40.90
29725;DHT22;16636;48.394;15.468;2023-03-05T04:21:10;4.00;40.20
29725;DHT22;16636;48.394;15.468;2023-03-05T04:23:36;4.00;40.10
29725;DHT22;16636;48.394;15.468;2023-03-05T04:26:03;4.00;40.50
29725;DHT22;16636;48.394;15.468;2023-03-05T04:28:30;4.00;40.80
29725;DHT22;16636;48.394;15.468;2023-03-05T04:30:56;4.00;40.50
29725;DHT22;16636;48.394;15.468;2023-03-05T04:33:22;4.00;41.40
29725;DHT22;16636;48.394;15.468;2023-03-05T04:35:49;4.00;41.80
29725;DHT22;16636;48.394;15.468;2023-03-05T04:38:15;4.00;41.50
29725;DHT22;16636;48.394;15.468;2023-03-05T04:40:41;3.90;41.50
29725;DHT22;16636;48.394;15.468;2023-03-05T04:43:07;4.00;41.50
29725;DHT22;16636;48.394;15.468;2023-03-05T04:45:33;3.90;42.20
29725;DHT22;16636;48.394;15.468;2023-03-05T04:47:59;3.90;43.20
29725;DHT22;16636;48.394;15.468;2023-03-05T04:50:25;3.90;42.40
29725;DHT22;16636;48.394;15.468;2023-03-05T04:52:52;3.90;42.70
29725;DHT22;16636;48.394;15.468;2023-03-05T04:55:18;3.90;42.80
29725;DHT22;16636;48.394;15.468;2023-03-05T04:57:44;3.90;43.40
29725;DHT22;16636;48.394;15.468;2023-03-05T05:00:12;3.90;42.60
29725;DHT22;16636;48.394;15.468;2023-03-05T05:02:40;3.90;42.00
29725;DHT22;16636;48.394;15.468;2023-03-05T05:05:08;3.90;43.10
29725;DHT22;16636;48.394;15.468;2023-03-05T05:07:34;3.90;42.90
29725;DHT22;16636;48.394;15.468;2023-03-05T05:10:00;3.90;42.60
29725;DHT22;16636;48.394;15.468;2023-03-05T05:12:29;3.90;43.00
29725;DHT22;16636;48.394;15.468;2023-03-05T05:14:56;3.90;42.80
29725;DHT22;16636;48.394;15.468;2023-03-05T05:17:23;3.90;43.10
29725;DHT22;16636;48.394;15.468;2023-03-05T05:19:49;3.90;42.80
29725;DHT22;16636;48.394;15.468;2023-03-05T05:22:15;3.90;42.20
29725;DHT22;16636;48.394;15.468;2023-03-05T05:24:41;3.90;42.40
29725;DHT22;16636;48.394;15.468;2023-03-05T05:27:07;3.90;43.50
29725;DHT22;16636;48.394;15.468;2023-03-05T05:29:33;3.90;43.00
29725;DHT22;16636;48.394;15.468;2023-03-05T05:31:59;3.90;43.00
29725;DHT22;16636;48.394;15.468;2023-03-05T05:34:26;3.90;42.40
29725;DHT22;16636;48.394;15.468;2023-03-05T05:36:52;3.90;43.10
29725;DHT22;16636;48.394;15.468;2023-03-05T05:39:18;3.90;43.30
29725;DHT22;16636;48.394;15.468;2023-03-05T05:41:44;3.90;43.00
29725;DHT22;16636;48.394;15.468;2023-03-05T05:44:10;3.90;42.80
29725;DHT22;16636;48.394;15.468;2023-03-05T05:46:36;3.80;43.70
29725;DHT22;16636;48.394;15.468;2023-03-05T05:49:02;3.80;44.50
29725;DHT22;16636;48.394;15.468;2023-03-05T05:51:28;3.80;45.30
29725;DHT22;16636;48.394;15.468;2023-03-05T05:53:54;3.80;45.00
29725;DHT22;16636;48.394;15.468;2023-03-05T05:56:20;3.80;45.60
29725;DHT22;16636;48.394;15.468;2023-03-05T05:58:47;3.80;46.40
29725;DHT22;16636;48.394;15.468;2023-03-05T06:01:16;3.80;46.30
29725;DHT22;16636;48.394;15.468;2023-03-05T06:03:43;3.80;48.40
29725;DHT22;16636;48.394;15.468;2023-03-05T06:06:11;3.80;48.80
29725;DHT22;16636;48.394;15.468;2023-03-05T06:08:37;3.70;50.30
29725;DHT22;16636;48.394;15.468;2023-03-05T06:11:05;3.70;52.10
29725;DHT22;16636;48.394;15.468;2023-03-05T06:13:31;3.70;52.90
29725;DHT22;16636;48.394;15.468;2023-03-05T06:16:00;3.80;55.80
29725;DHT22;16636;48.394;15.468;2023-03-05T06:18:26;3.70;52.60
29725;DHT22;16636;48.394;15.468;2023-03-05T06:21:01;3.70;52.20
29725;DHT22;16636;48.394;15.468;2023-03-05T06:23:27;3.70;54.00
29725;DHT22;16636;48.394;15.468;2023-03-05T06:25:54;3.70;58.10
29725;DHT22;16636;48.394;15.468;2023-03-05T06:28:23;3.70;56.80
29725;DHT22;16636;48.394;15.468;2023-03-05T06:30:49;3.70;57.60
29725;DHT22;16636;48.394;15.468;2023-03-05T06:33:15;3.70;61.40
29725;DHT22;16636;48.394;15.468;2023-03-05T06:35:41;3.70;66.70
29725;DHT22;16636;48.394;15.468;2023-03-05T06:38:07;3.70;73.90
29725;DHT22;16636;48.394;15.468;2023-03-05T06:40:34;3.70;63.10
29725;DHT22;16636;48.394;15.468;2023-03-05T06:43:00;3.70;62.00
29725;DHT22;16636;48.394;15.468;2023-03-05T06:45:26;3.70;67.40
29725;DHT22;16636;48.394;15.468;2023-03-05T06:47:52;3.70;66.20
29725;DHT22;16636;48.394;15.468;2023-03-05T06:50:18;3.70;67.80
29725;DHT22;16636;48.394;15.468;2023-03-05T06:52:47;3.70;68.80
29725;DHT22;16636;48.394;15.468;2023-03-05T06:55:13;3.70;68.80
29725;DHT22;16636;48.394;15.468;2023-03-05T06:57:39;3.70;66.50
29725;DHT22;16636;48.394;15.468;2023-03-05T07:00:05;3.70;65.80
29725;DHT22;16636;48.394;15.468;2023-03-05T07:02:34;3.70;66.20
29725;DHT22;16636;48.394;15.468;2023-03-05T07:05:00;3.80;65.50
29725;DHT22;16636;48.394;15.468;2023-03-05T07:07:26;3.80;64.40
29725;DHT22;16636;48.394;15.468;2023-03-05T07:09:52;3.80;65.50
29725;DHT22;16636;48.394;15.468;2023-03-05T07:12:18;3.90;68.60
29725;DHT22;16636;48.394;15.468;2023-03-05T07:14:44;3.80;66.30
29725;DHT22;16636;48.394;15.468;2023-03-05T07:17:10;3.80;67.20
29725;DHT22;16636;48.394;15.468;2023-03-05T07:19:37;3.80;67.00
29725;DHT22;16636;48.394;15.468;2023-03-05T07:22:06;3.90;67.30
29725;DHT22;16636;48.394;15.468;2023-03-05T07:24:32;3.90;69.40
29725;DHT22;16636;48.394;15.468;2023-03-05T07:26:58;3.90;69.30
29725;DHT22;16636;48.394;15.468;2023-03-05T07:29:26;4.00;70.30
29725;DHT22;16636;48.394;15.468;2023-03-05T07:31:53;4.00;71.40
29725;DHT22;16636;48.394;15.468;2023-03-05T07:34:20;4.00;70.70
29725;DHT22;16636;48.394;15.468;2023-03-05T07:36:49;4.10;64.50
29725;DHT22;16636;48.394;15.468;2023-03-05T07:39:16;4.10;64.50
29725;DHT22;16636;48.394;15.468;2023-03-05T07:41:45;4.10;66.90
29725;DHT22;16636;48.394;15.468;2023-03-05T07:44:12;4.10;73.60
29725;DHT22;16636;48.394;15.468;2023-03-05T07:46:38;4.20;77.30
29725;DHT22;16636;48.394;15.468;2023-03-05T07:49:04;4.20;67.90
29725;DHT22;16636;48.394;15.468;2023-03-05T07:51:30;4.20;69.20
29725;DHT22;16636;48.394;15.468;2023-03-05T07:53:57;4.30;72.40
29725;DHT22;16636;48.394;15.468;2023-03-05T07:56:34;4.30;73.10
29725;DHT22;16636;48.394;15.468;2023-03-05T07:59:03;4.30;77.00
29725;DHT22;16636;48.394;15.468;2023-03-05T08:01:30;4.40;79.70
29725;DHT22;16636;48.394;15.468;2023-03-05T08:03:56;4.40;76.30
29725;DHT22;16636;48.394;15.468;2023-03-05T08:06:22;4.40;73.40
29725;DHT22;16636;48.394;15.468;2023-03-05T08:08:48;4.40;73.20
29725;DHT22;16636;48.394;15.468;2023-03-05T08:11:15;4.50;79.60
29725;DHT22;16636;48.394;15.468;2023-03-05T08:13:42;4.50;80.80
29725;DHT22;16636;48.394;15.468;2023-03-05T08:16:13;4.50;72.50
29725;DHT22;16636;48.394;15.468;2023-03-05T08:18:40;4.50;73.90
29725;DHT22;16636;48.394;15.468;2023-03-05T08:21:13;4.50;78.50
29725;DHT22;16636;48.394;15.468;2023-03-05T08:23:39;4.60;79.10
29725;DHT22;16636;48.394;15.468;2023-03-05T08:26:18;4.60;78.90
29725;DHT22;16636;48.394;15.468;2023-03-05T08:28:45;4.60;78.50
29725;DHT22;16636;48.394;15.468;2023-03-05T08:31:13;4.60;77.10
29725;DHT22;16636;48.394;15.468;2023-03-05T08:33:40;4.60;75.10
29725;DHT22;16636;48.394;15.468;2023-03-05T08:36:07;4.60;72.80
29725;DHT22;16636;48.394;15.468;2023-03-05T08:38:33;4.60;72.80
29725;DHT22;16636;48.394;15.468;2023-03-05T08:41:00;4.60;71.00
29725;DHT22;16636;48.394;15.468;2023-03-05T08:43:26;4.70;66.90
29725;DHT22;16636;48.394;15.468;2023-03-05T08:45:52;4.60;67.60
29725;DHT22;16636;48.394;15.468;2023-03-05T08:48:21;4.70;68.30
29725;DHT22;16636;48.394;15.468;2023-03-05T08:50:47;4.70;67.90
29725;DHT22;16636;48.394;15.468;2023-03-05T08:53:14;4.70;68.00
29725;DHT22;16636;48.394;15.468;2023-03-05T08:55:40;4.80;68.50
29725;DHT22;16636;48.394;15.468;2023-03-05T08:58:06;4.80;67.90
29725;DHT22;16636;48.394;15.468;2023-03-05T09:00:32;4.80;65.60
29725;DHT22;16636;48.394;15.468;2023-03-05T09:02:58;4.90;66.40
29725;DHT22;16636;48.394;15.468;2023-03-05T09:05:24;4.90;67.90
29725;DHT22;16636;48.394;15.468;2023-03-05T09:07:50;4.90;66.10
29725;DHT22;16636;48.394;15.468;2023-03-05T09:10:16;5.00;66.60
29725;DHT22;16636;48.394;15.468;2023-03-05T09:12:43;5.00;64.50
29725;DHT22;16636;48.394;15.468;2023-03-05T09:15:10;5.00;64.30
29725;DHT22;16636;48.394;15.468;2023-03-05T09:17:37;5.10;62.20
29725;DHT22;16636;48.394;15.468;2023-03-05T09:20:05;5.10;66.20
29725;DHT22;16636;48.394;15.468;2023-03-05T09:22:31;5.10;62.30
29725;DHT22;16636;48.394;15.468;2023-03-05T09:24:58;5.10;62.30
29725;DHT22;16636;48.394;15.468;2023-03-05T09:27:24;5.20;61.60
29725;DHT22;16636;48.394;15.468;2023-03-05T09:29:50;5.20;63.00
29725;DHT22;16636;48.394;15.468;2023-03-05T09:32:17;5.20;58.90
29725;DHT22;16636;48.394;15.468;2023-03-05T09:34:43;5.30;61.00
29725;DHT22;16636;48.394;15.468;2023-03-05T09:37:09;5.30;58.10
29725;DHT22;16636;48.394;15.468;2023-03-05T09:39:35;5.30;57.00
29725;DHT22;16636;48.394;15.468;2023-03-05T09:50:42;5.50;57.60
29725;DHT22;16636;48.394;15.468;2023-03-05T09:55:51;5.50;58.20
29725;DHT22;16636;48.394;15.468;2023-03-05T09:58:34;5.60;57.40
29725;DHT22;16636;48.394;15.468;2023-03-05T10:06:19;5.80;55.80
29725;DHT22;16636;48.394;15.468;2023-03-05T10:08:56;5.90;55.30
29725;DHT22;16636;48.394;15.468;2023-03-05T10:11:40;5.90;55.70
29725;DHT22;16636;48.394;15.468;2023-03-05T10:14:22;5.90;56.00
29725;DHT22;16636;48.394;15.468;2023-03-05T10:17:09;5.90;53.80
29725;DHT22;16636;48.394;15.468;2023-03-05T10:23:02;5.90;54.00
29725;DHT22;16636;48.394;15.468;2023-03-05T10:25:38;5.90;53.40
29725;DHT22;16636;48.394;15.468;2023-03-05T10:28:21;6.00;54.10
29725;DHT22;16636;48.394;15.468;2023-03-05T10:33:56;6.00;52.80
29725;DHT22;16636;48.394;15.468;2023-03-05T10:44:36;6.00;49.90
29725;DHT22;16636;48.394;15.468;2023-03-05T10:47:02;6.00;49.20
29725;DHT22;16636;48.394;15.468;2023-03-05T10:49:42;6.00;49.60
29725;DHT22;16636;48.394;15.468;2023-03-05T10:52:18;6.00;49.70
29725;DHT22;16636;48.394;15.468;2023-03-05T10:54:44;6.10;44.80
29725;DHT22;16636;48.394;15.468;2023-03-05T10:57:25;6.10;45.50
29725;DHT22;16636;48.394;15.468;2023-03-05T11:02:21;6.10;45.50
29725;DHT22;16636;48.394;15.468;2023-03-05T11:04:49;6.10;44.10
29725;DHT22;16636;48.394;15.468;2023-03-05T11:09:42;6.10;41.50
29725;DHT22;16636;48.394;15.468;2023-03-05T11:12:18;6.10;40.40
29725;DHT22;16636;48.394;15.468;2023-03-05T11:15:05;6.10;41.50
29725;DHT22;16636;48.394;15.468;2023-03-05T11:17:33;6.10;41.00
29725;DHT22;16636;48.394;15.468;2023-03-05T11:25:32;6.10;40.70
29725;DHT22;16636;48.394;15.468;2023-03-05T11:28:00;6.10;37.20
29725;DHT22;16636;48.394;15.468;2023-03-05T11:30:30;6.10;36.40
29725;DHT22;16636;48.394;15.468;2023-03-05T11:35:41;6.10;35.90
29725;DHT22;16636;48.394;15.468;2023-03-05T11:38:27;6.10;38.30
29725;DHT22;16636;48.394;15.468;2023-03-05T11:40:55;6.10;36.90
29725;DHT22;16636;48.394;15.468;2023-03-05T11:43:23;6.10;37.60
29725;DHT22;16636;48.394;15.468;2023-03-05T11:45:52;6.10;38.80
29725;DHT22;16636;48.394;15.468;2023-03-05T11:48:36;6.10;38.20
29725;DHT22;16636;48.394;15.468;2023-03-05T11:51:30;6.10;35.30
29725;DHT22;16636;48.394;15.468;2023-03-05T11:54:05;6.10;37.90
29725;DHT22;16636;48.394;15.468;2023-03-05T11:56:36;6.10;36.80
29725;DHT22;16636;48.394;15.468;2023-03-05T11:59:19;6.10;35.50
29725;DHT22;16636;48.394;15.468;2023-03-05T12:01:54;6.10;34.80
29725;DHT22;16636;48.394;15.468;2023-03-05T12:04:21;6.10;36.20
29725;DHT22;16636;48.394;15.468;2023-03-05T12:06:59;6.10;37.90
29725;DHT22;16636;48.394;15.468;2023-03-05T12:09:36;6.10;38.50
29725;DHT22;16636;48.394;15.468;2023-03-05T12:15:06;6.10;38.70
29725;DHT22;16636;48.394;15.468;2023-03-05T12:17:50;6.10;39.60
29725;DHT22;16636;48.394;15.468;2023-03-05T12:23:13;6.00;41.40
29725;DHT22;16636;48.394;15.468;2023-03-05T12:25:52;6.00;40.30
29725;DHT22;16636;48.394;15.468;2023-03-05T12:33:38;6.10;39.70
29725;DHT22;16636;48.394;15.468;2023-03-05T12:38:52;6.10;41.00
29725;DHT22;16636;48.394;15.468;2023-03-05T12:46:38;6.00;40.70
29725;DHT22;16636;48.394;15.468;2023-03-05T12:51:49;5.90;41.00
29725;DHT22;16636;48.394;15.468;2023-03-05T12:54:23;5.90;41.60
29725;DHT22;16636;48.394;15.468;2023-03-05T12:56:53;5.90;41.10
29725;DHT22;16636;48.394;15.468;2023-03-05T12:59:22;5.90;40.00
29725;DHT22;16636;48.394;15.468;2023-03-05T13:02:00;5.90;42.10
29725;DHT22;16636;48.394;15.468;2023-03-05T13:04:30;5.90;43.30
29725;DHT22;16636;48.394;15.468;2023-03-05T13:06:59;5.90;43.20
29725;DHT22;16636;48.394;15.468;2023-03-05T13:09:27;5.90;42.30
29725;DHT22;16636;48.394;15.468;2023-03-05T13:11:56;6.00;42.40
29725;DHT22;16636;48.394;15.468;2023-03-05T13:16:58;5.90;42.60
29725;DHT22;16636;48.394;15.468;2023-03-05T13:19:24;5.90;43.20
29725;DHT22;16636;48.394;15.468;2023-03-05T13:21:58;6.00;41.70
29725;DHT22;16636;48.394;15.468;2023-03-05T13:24:24;6.00;40.60
29725;DHT22;16636;48.394;15.468;2023-03-05T13:26:50;6.00;40.50
29725;DHT22;16636;48.394;15.468;2023-03-05T13:29:20;6.00;41.50
29725;DHT22;16636;48.394;15.468;2023-03-05T13:32:01;6.00;41.20
29725;DHT22;16636;48.394;15.468;2023-03-05T13:34:43;6.00;39.60
29725;DHT22;16636;48.394;15.468;2023-03-05T13:37:20;6.00;39.80
29725;DHT22;16636;48.394;15.468;2023-03-05T13:39:55;6.00;41.30
29725;DHT22;16636;48.394;15.468;2023-03-05T13:42:24;6.00;40.90
29725;DHT22;16636;48.394;15.468;2023-03-05T13:45:02;6.00;39.40
29725;DHT22;16636;48.394;15.468;2023-03-05T13:47:32;6.00;41.90
29725;DHT22;16636;48.394;15.468;2023-03-05T13:50:00;6.00;41.70
29725;DHT22;16636;48.394;15.468;2023-03-05T13:52:34;6.10;40.90
29725;DHT22;16636;48.394;15.468;2023-03-05T13:55:02;6.00;39.30
29725;DHT22;16636;48.394;15.468;2023-03-05T13:57:40;6.10;40.10
29725;DHT22;16636;48.394;15.468;2023-03-05T14:02:51;6.00;40.90
29725;DHT22;16636;48.394;15.468;2023-03-05T14:05:17;6.10;40.50
29725;DHT22;16636;48.394;15.468;2023-03-05T14:07:47;6.10;39.90
29725;DHT22;16636;48.394;15.468;2023-03-05T14:10:33;6.10;40.60
29725;DHT22;16636;48.394;15.468;2023-03-05T14:13:20;6.10;41.80
29725;DHT22;16636;48.394;15.468;2023-03-05T14:16:14;6.10;41.30
29725;DHT22;16636;48.394;15.468;2023-03-05T14:18:56;6.00;41.90
29725;DHT22;16636;48.394;15.468;2023-03-05T14:21:23;6.00;41.90
29725;DHT22;16636;48.394;15.468;2023-03-05T14:23:51;6.00;40.30
29725;DHT22;16636;48.394;15.468;2023-03-05T14:26:24;6.00;41.00
29725;DHT22;16636;48.394;15.468;2023-03-05T14:28:53;6.00;42.00
29725;DHT22;16636;48.394;15.468;2023-03-05T14:31:21;6.00;42.20
29725;DHT22;16636;48.394;15.468;2023-03-05T14:33:48;6.00;42.20
29725;DHT22;16636;48.394;15.468;2023-03-05T14:36:21;6.00;43.20
29725;DHT22;16636;48.394;15.468;2023-03-05T14:38:47;6.00;42.20
29725;DHT22;16636;48.394;15.468;2023-03-05T14:41:33;6.00;42.10
29725;DHT22;16636;48.394;15.468;2023-03-05T14:44:00;6.00;42.00
29725;DHT22;16636;48.394;15.468;2023-03-05T14:46:26;6.00;41.80
29725;DHT22;16636;48.394;15.468;2023-03-05T14:48:52;6.00;42.70
29725;DHT22;16636;48.394;15.468;2023-03-05T14:51:19;6.00;41.20
29725;DHT22;16636;48.394;15.468;2023-03-05T14:53:47;6.00;42.50
29725;DHT22;16636;48.394;15.468;2023-03-05T14:56:26;5.90;41.70
29725;DHT22;16636;48.394;15.468;2023-03-05T14:58:54;6.00;40.70
29725;DHT22;16636;48.394;15.468;2023-03-05T15:01:21;5.90;40.50
29725;DHT22;16636;48.394;15.468;2023-03-05T15:03:47;6.00;42.40
29725;DHT22;16636;48.394;15.468;2023-03-05T15:08:44;5.90;43.40
29725;DHT22;16636;48.394;15.468;2023-03-05T15:11:11;5.90;42.40
29725;DHT22;16636;48.394;15.468;2023-03-05T15:13:37;5.90;42.80
29725;DHT22;16636;48.394;15.468;2023-03-05T15:16:04;5.90;41.70
29725;DHT22;16636;48.394;15.468;2023-03-05T15:18:31;5.90;41.00
29725;DHT22;16636;48.394;15.468;2023-03-05T15:20:57;5.90;41.30
29725;DHT22;16636;48.394;15.468;2023-03-05T15:23:23;5.90;41.50
29725;DHT22;16636;48.394;15.468;2023-03-05T15:25:49;5.90;41.60
29725;DHT22;16636;48.394;15.468;2023-03-05T15:28:15;5.90;42.10
29725;DHT22;16636;48.394;15.468;2023-03-05T15:30:44;5.90;42.90
29725;DHT22;16636;48.394;15.468;2023-03-05T15:33:13;5.80;41.50
29725;DHT22;16636;48.394;15.468;2023-03-05T15:35:40;5.80;42.10
29725;DHT22;16636;48.394;15.468;2023-03-05T15:38:06;5.80;41.60
29725;DHT22;16636;48.394;15.468;2023-03-05T15:40:32;5.80;42.00
29725;DHT22;16636;48.394;15.468;2023-03-05T15:42:59;5.80;42.30
29725;DHT22;16636;48.394;15.468;2023-03-05T15:45:26;5.80;42.80
29725;DHT22;16636;48.394;15.468;2023-03-05T15:47:52;5.80;42.30
29725;DHT22;16636;48.394;15.468;2023-03-05T15:50:20;5.80;42.40
29725;DHT22;16636;48.394;15.468;2023-03-05T15:52:46;5.80;43.10
29725;DHT22;16636;48.394;15.468;2023-03-05T15:55:13;5.80;43.30
29725;DHT22;16636;48.394;15.468;2023-03-05T15:57:44;5.80;45.40
29725;DHT22;16636;48.394;15.468;2023-03-05T16:00:12;5.80;44.00
29725;DHT22;16636;48.394;15.468;2023-03-05T16:02:38;5.80;45.60
29725;DHT22;16636;48.394;15.468;2023-03-05T16:05:05;5.80;44.10
29725;DHT22;16636;48.394;15.468;2023-03-05T16:07:33;5.80;43.60
29725;DHT22;16636;48.394;15.468;2023-03-05T16:10:01;5.80;44.60
29725;DHT22;16636;48.394;15.468;2023-03-05T16:12:30;5.70;43.50
29725;DHT22;16636;48.394;15.468;2023-03-05T16:14:57;5.70;45.00
29725;DHT22;16636;48.394;15.468;2023-03-05T16:17:24;5.70;43.70
29725;DHT22;16636;48.394;15.468;2023-03-05T16:19:52;5.70;44.40
29725;DHT22;16636;48.394;15.468;2023-03-05T16:22:19;5.70;43.20
29725;DHT22;16636;48.394;15.468;2023-03-05T16:24:45;5.70;43.40
29725;DHT22;16636;48.394;15.468;2023-03-05T16:27:11;5.70;43.20
29725;DHT22;16636;48.394;15.468;2023-03-05T16:29:37;5.70;43.30
29725;DHT22;16636;48.394;15.468;2023-03-05T16:32:04;5.70;43.00
29725;DHT22;16636;48.394;15.468;2023-03-05T16:34:30;5.60;43.80
29725;DHT22;16636;48.394;15.468;2023-03-05T16:36:59;5.60;43.20
29725;DHT22;16636;48.394;15.468;2023-03-05T16:39:29;5.60;42.80
29725;DHT22;16636;48.394;15.468;2023-03-05T16:41:55;5.60;43.10
29725;DHT22;16636;48.394;15.468;2023-03-05T16:44:22;5.60;43.80
29725;DHT22;16636;48.394;15.468;2023-03-05T16:46:48;5.70;43.40
29725;DHT22;16636;48.394;15.468;2023-03-05T16:49:20;5.60;43.00
29725;DHT22;16636;48.394;15.468;2023-03-05T16:51:46;5.60;42.80
29725;DHT22;16636;48.394;15.468;2023-03-05T16:54:12;5.60;42.10